Aktualne dane pomiarowe

Uwaga, wersja testowa! Automatyczne pobieranie danych za pomocą narzędzi lub skryptów to umożliwiających jest zabronione.

Dane meteo z obszaru Polski uzyskane na podstawie depesz SYNOP pobieranych co godzinę z NWS. Najedź myszką na symbol przedstawiony w tabeli, aby uzyskać informacje co do jego znaczenia. Prosimy pamiętać, że to testowa wersja strony, która jeszcze nie jest ukończona. Stworzono również jest krótki FAQ dotyczący korzystania z tej podstrony Anomalie temperatury w chwili obecnej odniesione są do okresu referencyjnego 1951-2016. Okres ten będzie później zmieniony na 1981-2010. Kliknij ikonę aby pobrać plik CSV. Kliknij ikonę aby wygenerować mapę synoptyczną dla danego terminu.

Wybierz Datę:    

        

Mirosławiec (12226)

Dane terminowe dla wybranej stacji. Kliknij datę, aby otrzymać dane z tego terminu dla wszystkich stacji.

TemperaturaZachmurzenieWiatrCiśnienieOpadyPogoda
 Data t td wb tx tn tg rh  Nt Nl Cl Cm Ch ws wd g1 g2 wx mslp ppp ch 24h 12h t ww ww w1 w2  
2019-08-10 23:00:00 19.4 12.9 15.2--- 6655.0wx-wx2wx---1013.6 996.0 1.0---------
2019-08-10 22:00:00 19.8 13.1 15.5--- 6555.0wx-wx2wx---1013.3 995.7 1.4---------
2019-08-10 21:00:00 20.8 13.5 16.1--- 6355.0wx-wx2wx---1012.9 995.4 2.1---------
2019-08-10 20:00:00 21.8 14.5 17.1--- 6355.0wxwxwxwx3wx---1012.4 995.0 2.1---wx-w1w2--
2019-08-10 19:00:00 22.9 14.2 17.3--- 5840.0wxwxwxwx3wx---1011.7 994.3 1.7---wx---
2019-08-10 18:00:00 23.8 14.2 17.7--- 5555.0wxwxwxwx3wx---1010.6 993.3 0.9---------
2019-08-10 17:00:00 24.4 15.4 18.6--- 5755.0wxwxwxwx3wx---1010.1 992.9 0.7---------
2019-08-10 16:00:00 24.2 15.7 18.7--- 5955.0wxwxwxwx3wx---1009.8 992.6 0.6---------
2019-08-10 15:00:00 25.3 16.2 19.3--- 5755.0wxwxwxwx4wx---1009.6 992.4 0.6---------
2019-08-10 14:00:00 23.6 20.9 21.6--- 8540.0wxwxwxwx3wx---1009.4 992.2 0.0---------
2019-08-10 13:00:00 22.4 20.3 20.9--- 8840.0wxwxwx2wx---1009.3 992.0 -0.1---wx-w1--
2019-08-10 12:00:00 25.3 17.8 20.2--- 6350.0wxwxwx4wx---1008.9 991.8 0.0---------
2019-08-10 11:00:00 24.2 17.9 19.9--- 6850.0wxwxwx4wx---1009.4 992.2 0.4---------
2019-08-10 10:00:00 24.5 16.3 19.1--- 6055.0wxwxwx4wx---1009.4 992.2 -0.2---------
2019-08-10 09:00:00 24.5 16.3 19.1--- 6045.0wx-wx4wx---1009.0 991.8 -0.7---------
2019-08-10 08:00:00 22.5 14.4 17.3--- 6045.0wx-wx4wx---1009.1 991.8 -0.1---------
2019-08-10 07:00:00 19.1 13.3 15.3--- 6945.0wx-wx3wx---1010.0 992.4 -0.3---------
2019-08-10 06:00:00 17.6 12.5 14.3--- 7210.0wx-wx3wx---1010.2 992.5 -1.0---------
2019-08-10 05:00:00 17.6 11.9 14.0--- 6910.0wx-wx5wx---1009.6 991.9 -2.0---------
2019-08-10 04:00:00 16.6 12.4 13.8--- 7610.0wxwxwxwx4wx---1010.4 992.7 -1.5---------
2019-08-10 03:00:00 16.4 12.4 13.8--- 7710.0wxwxwx4wx---1011.3 993.5 -1.0---------
2019-08-10 02:00:00 17.1 11.8 13.7--- 7110.0wx-wx5wx---1011.6 993.9 -0.9---------
2019-08-10 01:00:00 17.1 11.8 13.7--- 7110.0wx-wx5wx---1011.9 994.2 -1.1---------
2019-08-10 00:00:00 17.2 11.9 13.8--- 7110.0wx-wx5wx---1012.2 994.5 -1.1---------
2019-08-09 23:00:00 15.5 11.9 13.1--- 7910.0wx-4wx---1012.7 994.8 -0.4---------
2019-08-09 22:00:00 15.4 12.0 13.1--- 8010.0wx-3wx---1013.2 995.3 0.0---------
2019-08-09 21:00:00 15.3 12.1 13.2--- 8110.0wx-wx3wx---1013.5 995.6 0.5---------
2019-08-09 20:00:00 17.3 12.4 14.1--- 7310.0wx-wx3wx---1013.0 995.3 0.4---------
2019-08-09 19:00:00 17.6 12.5 14.3--- 7210.0wx-wx2wx---1013.0 995.3 0.1---------
2019-08-09 18:00:00 19.7 12.5 15.1--- 6310.0wx-wxwx1wx---1012.7 995.1 -0.2---------
2019-08-09 17:00:00 22.7 11.8 16.1--- 5010.0wx-wxwx1wx---1012.3 994.9 -0.4---------
2019-08-09 16:00:00 23.4 10.8 15.9--- 4510.0wxwxwxwx2wx---1012.6 995.2 -0.1---------
2019-08-09 15:00:00 23.0 10.8 15.7--- 4610.0wxwxwxwx3wx---1012.7 995.3 -0.2---------
2019-08-09 14:00:00 23.4 11.5 16.2--- 4710.0wxwxwxwx3wx---1012.7 995.3 -0.2---------
2019-08-09 13:00:00 23.4 10.8 15.9--- 4510.0wxwxwx5wx---1012.7 995.3 0.0---------
2019-08-09 12:00:00 23.1 10.9 15.8--- 4610.0wxwxwx4wx---1012.9 995.5 0.2---------
2019-08-09 11:00:00 22.2 11.3 15.6--- 5010.0wxwxwx5wx---1013.0 995.5 0.3---------
2019-08-09 10:00:00 21.0 11.9 15.4--- 5610.0wxwxwx6wx---1012.8 995.3 0.4---------
2019-08-09 09:00:00 20.4 11.4 14.9--- 5610.0wxwxwx4wx---1012.9 995.3 0.4---------
2019-08-09 08:00:00 19.4 12.9 15.2--- 6610.0wxwxwx5wx---1012.8 995.2 0.5---------
2019-08-09 07:00:00 17.4 12.9 14.4--- 7510.0wxwxwx3wx---1012.6 994.9 0.5---------
2019-08-09 06:00:00 15.6 12.9 13.8--- 8440.0wx-3wx---1012.6 994.8 0.4---------
2019-08-09 05:00:00 13.8 12.7 13.0--- 9329.0wx-2wx---1012.7 994.7 0.4---------
2019-08-09 04:00:00 11.7 11.2 11.3--- 9727.0wx-2wx---1012.5 994.4 0.5---------
2019-08-09 03:00:00 10.9 10.6 10.6--- 9810.0wx-1wx---1012.5 994.3 0.6---------
2019-08-09 02:00:00 11.7 11.2 11.3--- 9718.0wx-2wx---1012.4 994.3 0.5---------
2019-08-09 01:00:00 12.9 12.0 12.2--- 9435.0wx-3wx---1011.9 993.9 0.2---wx---
2019-08-09 00:00:00 11.9 11.6 11.6--- 986.0wx-wx1----1011.8 993.7 0.2---wx---
14.8 ms

 

Print Friendly, PDF & Email